Time;durP1;ratioP1;P1;durP2;ratioP2;P2;SDS_P1;SDS_P2;PMS_P1;PMS_P2;Temp;Humidity;BMP_temperature;BMP_pressure;BME280_temperature;BME280_humidity;BME280_pressure;Samples;Min_cycle;Max_cycle;Signal;HPM_P1;HPM_P2
2023/07/25 00:02:13;;;;;;;6.18;3.47;;;;;;;;;;5226304;28;20029;-71
2023/07/25 00:04:43;;;;;;;11.15;4.13;;;;;;;;;;5225988;28;20104;-71
2023/07/25 00:07:13;;;;;;;11.45;4.30;;;;;;;;;;5225737;28;20020;-71
2023/07/25 00:09:43;;;;;;;7.93;3.58;;;;;;;;;;5225776;28;20386;-71
2023/07/25 00:12:14;;;;;;;6.97;3.53;;;;;;;;;;5225681;28;20058;-71
2023/07/25 00:14:44;;;;;;;9.18;3.70;;;;;;;;;;5225828;28;20082;-71
2023/07/25 00:17:14;;;;;;;12.07;3.72;;;;;;;;;;5225560;28;20017;-71
2023/07/25 00:19:45;;;;;;;16.30;4.28;;;;;;;;;;5225616;28;20048;-71
2023/07/25 00:22:15;;;;;;;14.48;3.58;;;;;;;;;;5225601;28;20103;-71
2023/07/25 00:24:45;;;;;;;11.82;4.25;;;;;;;;;;5225307;28;20039;-71
2023/07/25 00:27:15;;;;;;;16.63;4.57;;;;;;;;;;5224841;28;20021;-72
2023/07/25 00:29:47;;;;;;;8.32;3.78;;;;;;;;;;5225478;28;20378;-71
2023/07/25 00:32:17;;;;;;;12.57;4.15;;;;;;;;;;5224314;28;20025;-71
2023/07/25 00:35:06;;;;;;;8.00;3.65;;;;;;;;;;5225397;28;20013;-72
2023/07/25 00:37:36;;;;;;;8.57;4.88;;;;;;;;;;5224737;28;20079;-71
2023/07/25 00:40:07;;;;;;;10.75;4.18;;;;;;;;;;5225263;28;20049;-71
2023/07/25 00:42:37;;;;;;;11.93;3.35;;;;;;;;;;5225108;28;20174;-71
2023/07/25 00:45:07;;;;;;;12.15;3.55;;;;;;;;;;5225088;28;20391;-71
2023/07/25 00:47:38;;;;;;;14.13;4.28;;;;;;;;;;5224595;28;20021;-71
2023/07/25 00:50:09;;;;;;;12.25;4.15;;;;;;;;;;5225536;28;20535;-71
2023/07/25 00:52:39;;;;;;;10.95;3.85;;;;;;;;;;5225007;28;20463;-71
2023/07/25 00:55:09;;;;;;;20.52;5.32;;;;;;;;;;5225165;28;20498;-70
2023/07/25 00:57:40;;;;;;;17.83;5.18;;;;;;;;;;5224958;28;20028;-71
2023/07/25 01:00:11;;;;;;;11.88;4.38;;;;;;;;;;5225116;28;20017;-71
2023/07/25 01:02:41;;;;;;;11.38;4.03;;;;;;;;;;5225008;28;20046;-71
2023/07/25 01:05:11;;;;;;;17.55;4.55;;;;;;;;;;5224984;28;20029;-71
2023/07/25 01:07:42;;;;;;;9.20;4.60;;;;;;;;;;5224948;28;20466;-71
2023/07/25 01:10:13;;;;;;;11.05;4.10;;;;;;;;;;5225411;28;20240;-71
2023/07/25 01:12:44;;;;;;;13.43;3.58;;;;;;;;;;5224636;28;20020;-71
2023/07/25 01:15:14;;;;;;;12.48;3.88;;;;;;;;;;5225095;28;20024;-72
2023/07/25 01:17:44;;;;;;;9.18;3.58;;;;;;;;;;5224610;28;20036;-71
2023/07/25 01:20:15;;;;;;;12.05;4.22;;;;;;;;;;5224932;28;20047;-71
2023/07/25 01:22:46;;;;;;;14.48;4.25;;;;;;;;;;5224601;28;20063;-71
2023/07/25 01:25:16;;;;;;;13.00;4.43;;;;;;;;;;5224585;28;20017;-71
2023/07/25 01:27:47;;;;;;;14.02;4.20;;;;;;;;;;5224415;28;20042;-71
2023/07/25 01:30:17;;;;;;;9.48;4.38;;;;;;;;;;5224833;28;20025;-71
2023/07/25 01:32:47;;;;;;;13.27;4.53;;;;;;;;;;5224642;28;20013;-71
2023/07/25 01:35:18;;;;;;;7.75;5.15;;;;;;;;;;5224273;28;20467;-71
2023/07/25 01:37:48;;;;;;;11.10;4.45;;;;;;;;;;5223966;28;20021;-71
2023/07/25 01:40:18;;;;;;;15.48;4.88;;;;;;;;;;5224327;28;20017;-70
2023/07/25 01:42:49;;;;;;;13.23;4.20;;;;;;;;;;5224110;28;20402;-71
2023/07/25 01:45:19;;;;;;;12.65;5.15;;;;;;;;;;5224232;28;20025;-71
2023/07/25 01:47:49;;;;;;;16.95;4.55;;;;;;;;;;5224159;28;20079;-71
2023/07/25 01:50:20;;;;;;;13.13;4.65;;;;;;;;;;5224560;28;20112;-71
2023/07/25 01:52:51;;;;;;;11.50;5.15;;;;;;;;;;5224391;28;20103;-71
2023/07/25 01:55:21;;;;;;;12.35;4.78;;;;;;;;;;5224240;28;20025;-71
2023/07/25 01:57:51;;;;;;;10.82;3.92;;;;;;;;;;5224045;28;20382;-70
2023/07/25 02:00:22;;;;;;;17.33;5.03;;;;;;;;;;5224025;28;20013;-71
2023/07/25 02:02:52;;;;;;;15.43;5.10;;;;;;;;;;5223522;28;20030;-71
2023/07/25 02:05:23;;;;;;;15.73;4.70;;;;;;;;;;5224148;28;20513;-71
2023/07/25 02:07:54;;;;;;;17.27;4.47;;;;;;;;;;5223703;28;20095;-71
2023/07/25 02:10:24;;;;;;;8.15;4.03;;;;;;;;;;5223907;28;20028;-71
2023/07/25 02:12:56;;;;;;;16.25;4.80;;;;;;;;;;5224313;28;20056;-70
2023/07/25 02:15:26;;;;;;;12.23;5.30;;;;;;;;;;5223657;28;20550;-70
2023/07/25 02:17:56;;;;;;;14.23;4.57;;;;;;;;;;5223741;28;20104;-71
2023/07/25 02:20:29;;;;;;;14.02;5.10;;;;;;;;;;5224006;28;20071;-71
2023/07/25 02:22:59;;;;;;;11.82;4.40;;;;;;;;;;5223793;28;20021;-70
2023/07/25 02:25:30;;;;;;;12.40;5.13;;;;;;;;;;5223906;28;20394;-71
2023/07/25 02:28:00;;;;;;;14.82;4.35;;;;;;;;;;5223106;28;20070;-71
2023/07/25 02:30:31;;;;;;;13.00;4.43;;;;;;;;;;5223884;28;20025;-71
2023/07/25 02:33:01;;;;;;;11.15;4.45;;;;;;;;;;5224125;28;20037;-70
2023/07/25 02:35:32;;;;;;;10.55;4.97;;;;;;;;;;5223592;28;20021;-70
2023/07/25 02:38:02;;;;;;;13.80;4.90;;;;;;;;;;5223388;28;20028;-70
2023/07/25 02:40:32;;;;;;;11.27;4.50;;;;;;;;;;5223577;28;20405;-70
2023/07/25 02:43:04;;;;;;;11.02;4.28;;;;;;;;;;5223939;28;20424;-71
2023/07/25 02:45:35;;;;;;;10.00;4.82;;;;;;;;;;5223884;28;20437;-71
2023/07/25 02:48:05;;;;;;;10.52;4.50;;;;;;;;;;5223618;28;20105;-71
2023/07/25 02:50:35;;;;;;;17.63;4.25;;;;;;;;;;5223384;28;20029;-70
2023/07/25 02:53:06;;;;;;;12.32;4.97;;;;;;;;;;5223373;28;20021;-71
2023/07/25 02:55:36;;;;;;;11.23;4.97;;;;;;;;;;5225484;28;20036;-71
2023/07/25 02:58:07;;;;;;;12.75;5.10;;;;;;;;;;5227070;28;20044;-71
2023/07/25 03:00:37;;;;;;;13.57;4.88;;;;;;;;;;5227442;28;20028;-71
2023/07/25 03:03:07;;;;;;;14.23;5.22;;;;;;;;;;5226830;28;20021;-70
2023/07/25 03:05:37;;;;;;;16.77;5.38;;;;;;;;;;5227249;28;20032;-71
2023/07/25 03:08:08;;;;;;;14.10;5.72;;;;;;;;;;5226833;28;20028;-71
2023/07/25 03:10:38;;;;;;;15.15;5.20;;;;;;;;;;5227202;28;20404;-71
2023/07/25 03:13:08;;;;;;;11.98;4.53;;;;;;;;;;5227118;28;20467;-71
2023/07/25 03:15:39;;;;;;;18.63;5.15;;;;;;;;;;5226629;28;20029;-71
2023/07/25 03:18:09;;;;;;;12.13;5.28;;;;;;;;;;5226877;28;20070;-71
2023/07/25 03:20:39;;;;;;;11.25;4.82;;;;;;;;;;5227116;28;20074;-71
2023/07/25 03:23:10;;;;;;;13.30;5.22;;;;;;;;;;5227313;28;20021;-70
2023/07/25 03:25:40;;;;;;;16.08;6.15;;;;;;;;;;5227088;28;20025;-71
2023/07/25 03:28:10;;;;;;;19.42;5.22;;;;;;;;;;5226491;28;20154;-71
2023/07/25 03:30:40;;;;;;;13.80;4.95;;;;;;;;;;5226806;28;20024;-72
2023/07/25 03:33:11;;;;;;;17.15;5.28;;;;;;;;;;5226817;28;20159;-71
2023/07/25 03:35:41;;;;;;;11.88;4.97;;;;;;;;;;5226427;28;20386;-71
2023/07/25 03:38:11;;;;;;;15.40;5.97;;;;;;;;;;5226794;28;20025;-71
2023/07/25 03:40:42;;;;;;;12.45;5.25;;;;;;;;;;5226301;28;20027;-71
2023/07/25 03:43:12;;;;;;;14.27;4.78;;;;;;;;;;5226587;28;20359;-71
2023/07/25 03:45:42;;;;;;;16.35;5.57;;;;;;;;;;5226320;28;20013;-71
2023/07/25 03:48:13;;;;;;;17.48;6.00;;;;;;;;;;5226490;28;20032;-71
2023/07/25 03:50:44;;;;;;;12.82;5.18;;;;;;;;;;5226740;28;20021;-71
2023/07/25 03:53:14;;;;;;;9.30;5.35;;;;;;;;;;5226423;28;20024;-71
2023/07/25 03:55:44;;;;;;;19.55;5.45;;;;;;;;;;5226187;28;20051;-71
2023/07/25 03:58:15;;;;;;;18.42;4.93;;;;;;;;;;5226410;28;20024;-71
2023/07/25 04:00:45;;;;;;;15.27;5.22;;;;;;;;;;5226338;28;20433;-71
2023/07/25 04:03:15;;;;;;;15.52;5.47;;;;;;;;;;5224823;28;20029;-71
2023/07/25 04:05:46;;;;;;;23.00;5.78;;;;;;;;;;5225335;28;20017;-71
2023/07/25 04:08:16;;;;;;;16.10;5.75;;;;;;;;;;5225968;28;20070;-71
2023/07/25 04:10:46;;;;;;;14.88;5.40;;;;;;;;;;5226020;28;20023;-71
2023/07/25 04:13:16;;;;;;;11.13;5.25;;;;;;;;;;5226402;28;20021;-71
2023/07/25 04:15:47;;;;;;;15.85;5.07;;;;;;;;;;5226023;28;20367;-71
2023/07/25 04:18:17;;;;;;;15.10;5.38;;;;;;;;;;5225393;28;20040;-71
2023/07/25 04:20:47;;;;;;;13.93;5.70;;;;;;;;;;5224699;28;20049;-70
2023/07/25 04:23:18;;;;;;;12.63;4.53;;;;;;;;;;5225686;28;20095;-71
2023/07/25 04:25:48;;;;;;;17.73;5.20;;;;;;;;;;5225472;28;20103;-71
2023/07/25 04:28:18;;;;;;;12.05;5.35;;;;;;;;;;5225630;28;20017;-71
2023/07/25 04:30:49;;;;;;;13.85;5.05;;;;;;;;;;5225417;28;20020;-71
2023/07/25 04:33:19;;;;;;;16.05;5.70;;;;;;;;;;5225875;28;20103;-71
2023/07/25 04:35:49;;;;;;;14.57;5.28;;;;;;;;;;5225118;28;20429;-71
2023/07/25 04:38:20;;;;;;;12.90;5.50;;;;;;;;;;5225481;28;20097;-72
2023/07/25 04:40:50;;;;;;;16.38;5.18;;;;;;;;;;5225381;28;20389;-72
2023/07/25 04:43:20;;;;;;;13.57;5.20;;;;;;;;;;5225126;28;20021;-71
2023/07/25 04:45:51;;;;;;;11.55;6.18;;;;;;;;;;5225120;28;20103;-71
2023/07/25 04:48:21;;;;;;;14.82;5.07;;;;;;;;;;5225290;28;20027;-72
2023/07/25 04:50:51;;;;;;;15.85;5.07;;;;;;;;;;5225682;28;20295;-71
2023/07/25 04:53:21;;;;;;;12.15;5.00;;;;;;;;;;5225282;28;20035;-71
2023/07/25 04:55:52;;;;;;;16.13;5.28;;;;;;;;;;5224617;28;20036;-71
2023/07/25 04:58:22;;;;;;;11.55;4.53;;;;;;;;;;5225145;28;20509;-71
2023/07/25 05:00:52;;;;;;;12.20;5.47;;;;;;;;;;5225146;28;20100;-71
2023/07/25 05:03:25;;;;;;;25.58;5.10;;;;;;;;;;5224795;28;20149;-71
2023/07/25 05:05:56;;;;;;;14.15;4.50;;;;;;;;;;5224459;28;20013;-71
2023/07/25 05:08:27;;;;;;;12.13;5.68;;;;;;;;;;5224479;28;20171;-71
2023/07/25 05:10:57;;;;;;;15.88;5.28;;;;;;;;;;5225107;28;20092;-71
2023/07/25 05:13:28;;;;;;;11.40;4.95;;;;;;;;;;5225005;28;20112;-70
2023/07/25 05:15:58;;;;;;;14.18;5.00;;;;;;;;;;5225083;28;20478;-71
2023/07/25 05:18:28;;;;;;;10.55;4.15;;;;;;;;;;5224039;28;20551;-71
2023/07/25 05:20:59;;;;;;;13.23;4.60;;;;;;;;;;5224688;28;20029;-71
2023/07/25 05:23:29;;;;;;;17.52;4.25;;;;;;;;;;5224915;28;20386;-71
2023/07/25 05:25:59;;;;;;;9.27;4.10;;;;;;;;;;5224251;28;20025;-71
2023/07/25 05:28:30;;;;;;;10.32;4.55;;;;;;;;;;5224706;28;20060;-70
2023/07/25 05:31:00;;;;;;;10.75;4.43;;;;;;;;;;5224359;28;20418;-71
2023/07/25 05:33:30;;;;;;;14.45;4.72;;;;;;;;;;5224515;28;20036;-72
2023/07/25 05:36:01;;;;;;;8.90;3.83;;;;;;;;;;5224439;28;20029;-71
2023/07/25 05:38:31;;;;;;;12.30;4.45;;;;;;;;;;5224323;28;20028;-72
2023/07/25 05:41:02;;;;;;;16.65;6.40;;;;;;;;;;5224469;28;20033;-72
2023/07/25 05:43:33;;;;;;;9.38;4.57;;;;;;;;;;5224005;28;20057;-72
2023/07/25 05:46:03;;;;;;;8.43;3.97;;;;;;;;;;5224138;28;20060;-72
2023/07/25 05:48:33;;;;;;;16.45;5.30;;;;;;;;;;5224071;28;20021;-71
2023/07/25 05:51:03;;;;;;;11.75;4.40;;;;;;;;;;5224253;28;20028;-71
2023/07/25 05:53:34;;;;;;;15.60;4.82;;;;;;;;;;5224151;28;20505;-72
2023/07/25 05:56:04;;;;;;;13.13;5.35;;;;;;;;;;5223652;28;20025;-71
2023/07/25 05:58:35;;;;;;;14.95;5.32;;;;;;;;;;5224052;28;20035;-71
2023/07/25 06:01:05;;;;;;;16.70;4.70;;;;;;;;;;5224441;28;20013;-71
2023/07/25 06:03:36;;;;;;;13.90;4.72;;;;;;;;;;5223995;28;20043;-71
2023/07/25 06:06:06;;;;;;;18.30;4.93;;;;;;;;;;5223460;28;20044;-71
2023/07/25 06:08:36;;;;;;;15.52;4.80;;;;;;;;;;5223578;28;20021;-72
2023/07/25 06:11:07;;;;;;;12.00;4.53;;;;;;;;;;5223960;28;20017;-72
2023/07/25 06:13:37;;;;;;;16.63;4.90;;;;;;;;;;5224059;28;20106;-72
2023/07/25 06:16:07;;;;;;;14.70;4.10;;;;;;;;;;5223640;28;20083;-72
2023/07/25 06:18:38;;;;;;;13.98;4.45;;;;;;;;;;5223748;28;20067;-72
2023/07/25 06:21:08;;;;;;;16.85;4.85;;;;;;;;;;5223885;28;20063;-71
2023/07/25 06:23:38;;;;;;;11.20;4.30;;;;;;;;;;5224540;28;20029;-72
2023/07/25 06:26:09;;;;;;;14.52;4.55;;;;;;;;;;5223607;28;20073;-71
2023/07/25 06:28:39;;;;;;;12.32;4.90;;;;;;;;;;5223820;28;20052;-72
2023/07/25 06:31:10;;;;;;;9.32;4.47;;;;;;;;;;5227101;28;20017;-72
2023/07/25 06:33:40;;;;;;;10.02;4.07;;;;;;;;;;5227673;28;20029;-72
2023/07/25 06:36:10;;;;;;;8.52;3.88;;;;;;;;;;5227474;28;20029;-71
2023/07/25 06:38:41;;;;;;;14.73;4.45;;;;;;;;;;5226563;28;20075;-72
2023/07/25 06:41:11;;;;;;;10.85;3.97;;;;;;;;;;5227971;28;20107;-72
2023/07/25 06:43:41;;;;;;;10.05;3.00;;;;;;;;;;5227732;28;20025;-72
2023/07/25 06:46:11;;;;;;;12.43;3.47;;;;;;;;;;5227024;28;20021;-71
2023/07/25 06:48:42;;;;;;;13.23;3.90;;;;;;;;;;5227665;28;20017;-71
2023/07/25 06:51:12;;;;;;;13.73;3.33;;;;;;;;;;5227755;28;20059;-72
2023/07/25 06:53:42;;;;;;;9.50;3.22;;;;;;;;;;5227652;28;20029;-72
2023/07/25 06:56:12;;;;;;;12.73;2.75;;;;;;;;;;5227530;28;20024;-72
2023/07/25 06:58:43;;;;;;;10.38;2.47;;;;;;;;;;5227057;28;20068;-72
2023/07/25 07:01:13;;;;;;;13.18;2.55;;;;;;;;;;5227536;28;20029;-72
2023/07/25 07:03:43;;;;;;;10.50;3.22;;;;;;;;;;5214042;28;20052;-72
2023/07/25 07:06:14;;;;;;;7.45;2.92;;;;;;;;;;5226876;28;20475;-72
2023/07/25 07:08:44;;;;;;;10.13;2.78;;;;;;;;;;5227283;28;20025;-71
2023/07/25 07:11:14;;;;;;;16.17;3.00;;;;;;;;;;5227042;28;20017;-71
2023/07/25 07:13:44;;;;;;;8.45;2.80;;;;;;;;;;5227203;28;20086;-72
2023/07/25 07:16:15;;;;;;;10.45;2.40;;;;;;;;;;5227003;28;20057;-72
2023/07/25 07:18:45;;;;;;;10.13;2.35;;;;;;;;;;5226953;28;20071;-71
2023/07/25 07:21:15;;;;;;;8.38;2.05;;;;;;;;;;5227278;28;20087;-71
2023/07/25 07:23:46;;;;;;;7.78;2.00;;;;;;;;;;5226664;28;20028;-71
2023/07/25 07:26:16;;;;;;;12.10;3.03;;;;;;;;;;5226958;28;20077;-72
2023/07/25 07:28:46;;;;;;;10.13;2.50;;;;;;;;;;5226811;28;20048;-71
2023/07/25 07:31:23;;;;;;;10.48;2.30;;;;;;;;;;5226969;28;20488;-72
2023/07/25 07:34:07;;;;;;;9.40;3.00;;;;;;;;;;5227023;28;20044;-72
2023/07/25 07:36:38;;;;;;;7.78;2.80;;;;;;;;;;5226606;28;20021;-72
2023/07/25 07:39:08;;;;;;;6.93;2.22;;;;;;;;;;5226950;28;20021;-71
2023/07/25 07:41:38;;;;;;;9.55;2.20;;;;;;;;;;5226342;28;20120;-71
2023/07/25 07:44:08;;;;;;;10.30;2.85;;;;;;;;;;5226971;28;20040;-72
2023/07/25 07:46:39;;;;;;;9.93;2.70;;;;;;;;;;5225972;28;20021;-72
2023/07/25 07:49:09;;;;;;;11.32;2.30;;;;;;;;;;5226339;28;20053;-72
2023/07/25 07:51:39;;;;;;;14.30;2.92;;;;;;;;;;5226551;28;20079;-72
2023/07/25 07:54:10;;;;;;;7.45;2.85;;;;;;;;;;5226796;28;20025;-73
2023/07/25 07:56:40;;;;;;;12.30;3.65;;;;;;;;;;5226051;28;20410;-72
2023/07/25 07:59:10;;;;;;;13.07;2.75;;;;;;;;;;5225952;28;20025;-71
2023/07/25 08:01:40;;;;;;;9.82;2.83;;;;;;;;;;5225929;28;20483;-72
2023/07/25 08:04:11;;;;;;;9.35;2.72;;;;;;;;;;5226108;28;20032;-72
2023/07/25 08:06:41;;;;;;;9.73;2.58;;;;;;;;;;5225689;28;20063;-71
2023/07/25 08:09:11;;;;;;;13.95;2.90;;;;;;;;;;5226020;28;20017;-72
2023/07/25 08:11:42;;;;;;;8.00;2.45;;;;;;;;;;5225731;28;20486;-72
2023/07/25 08:14:12;;;;;;;10.10;3.00;;;;;;;;;;5226097;28;20024;-71
2023/07/25 08:16:42;;;;;;;9.65;2.50;;;;;;;;;;5225537;28;20025;-71
2023/07/25 08:19:13;;;;;;;10.18;2.45;;;;;;;;;;5225881;28;20029;-72
2023/07/25 08:21:43;;;;;;;7.32;1.88;;;;;;;;;;5226057;28;20028;-72
2023/07/25 08:24:13;;;;;;;6.80;2.90;;;;;;;;;;5225287;28;20421;-71
2023/07/25 08:26:43;;;;;;;7.40;2.20;;;;;;;;;;5225538;28;20104;-71
2023/07/25 08:29:14;;;;;;;8.40;2.63;;;;;;;;;;5225521;28;20024;-71
2023/07/25 08:31:44;;;;;;;10.30;2.20;;;;;;;;;;5225870;28;20103;-71
2023/07/25 08:34:14;;;;;;;11.32;2.45;;;;;;;;;;5225626;28;20032;-71
2023/07/25 08:36:44;;;;;;;10.32;2.65;;;;;;;;;;5224850;28;20061;-71
2023/07/25 08:39:15;;;;;;;9.15;1.92;;;;;;;;;;5225669;28;20079;-71
2023/07/25 08:41:50;;;;;;;10.38;1.65;;;;;;;;;;5225695;28;20398;-71
2023/07/25 08:44:21;;;;;;;13.05;2.40;;;;;;;;;;5212499;28;20483;-72
2023/07/25 08:46:53;;;;;;;9.40;2.53;;;;;;;;;;5224798;28;20023;-71
2023/07/25 08:49:24;;;;;;;7.25;2.60;;;;;;;;;;5225786;28;20166;-71
2023/07/25 08:51:55;;;;;;;18.15;2.55;;;;;;;;;;5225198;28;20157;-72
2023/07/25 08:54:44;;;;;;;11.00;2.20;;;;;;;;;;5224799;28;20056;-71
2023/07/25 08:57:16;;;;;;;11.23;2.70;;;;;;;;;;5224680;28;20083;-70
2023/07/25 08:59:47;;;;;;;8.02;2.30;;;;;;;;;;5223465;28;20021;-71
2023/07/25 09:02:18;;;;;;;7.90;2.33;;;;;;;;;;5213282;28;20025;-72
2023/07/25 09:04:48;;;;;;;12.43;2.25;;;;;;;;;;5224865;28;20029;-71
2023/07/25 09:07:18;;;;;;;10.90;2.20;;;;;;;;;;5224692;28;20021;-72
2023/07/25 09:09:49;;;;;;;8.77;2.10;;;;;;;;;;5224354;28;20060;-71
2023/07/25 09:12:19;;;;;;;10.85;2.30;;;;;;;;;;5225030;28;20512;-71
2023/07/25 09:14:50;;;;;;;5.82;1.80;;;;;;;;;;5224836;28;20032;-72
2023/07/25 09:17:21;;;;;;;11.32;2.00;;;;;;;;;;5224493;28;20028;-72
2023/07/25 09:19:51;;;;;;;10.02;1.67;;;;;;;;;;5224894;28;20028;-72
2023/07/25 09:22:40;;;;;;;9.00;1.80;;;;;;;;;;5224759;28;20047;-71
2023/07/25 09:25:13;;;;;;;7.72;2.03;;;;;;;;;;5224747;28;20371;-71
2023/07/25 09:27:45;;;;;;;9.40;1.77;;;;;;;;;;5224186;28;20013;-71
2023/07/25 09:30:16;;;;;;;6.43;1.58;;;;;;;;;;5224690;28;20021;-72
2023/07/25 09:32:47;;;;;;;9.90;2.10;;;;;;;;;;5224288;28;20104;-71
2023/07/25 09:35:17;;;;;;;7.25;1.80;;;;;;;;;;5224488;28;20094;-72
2023/07/25 09:38:03;;;;;;;11.38;1.77;;;;;;;;;;5224218;28;20096;-72
2023/07/25 09:40:36;;;;;;;9.75;1.92;;;;;;;;;;5224363;28;20023;-71
2023/07/25 09:43:06;;;;;;;9.10;1.80;;;;;;;;;;5224193;28;20078;-71
2023/07/25 09:45:37;;;;;;;8.25;1.95;;;;;;;;;;5223978;28;20037;-72
2023/07/25 09:48:07;;;;;;;7.95;1.60;;;;;;;;;;5224430;28;20024;-71
2023/07/25 09:50:38;;;;;;;9.30;1.98;;;;;;;;;;5224362;28;20028;-71
2023/07/25 09:53:09;;;;;;;12.05;1.92;;;;;;;;;;5224545;28;20018;-71
2023/07/25 09:55:39;;;;;;;13.43;2.22;;;;;;;;;;5223517;28;20013;-72
2023/07/25 09:58:10;;;;;;;7.20;1.98;;;;;;;;;;5224199;28;20079;-72
2023/07/25 10:00:41;;;;;;;9.10;2.00;;;;;;;;;;5224049;28;20036;-72
2023/07/25 10:03:11;;;;;;;5.53;1.70;;;;;;;;;;5223831;28;20090;-71
2023/07/25 10:05:43;;;;;;;9.05;2.28;;;;;;;;;;5223642;28;20040;-72
2023/07/25 10:08:14;;;;;;;8.15;1.85;;;;;;;;;;5223663;28;20013;-72
2023/07/25 10:10:44;;;;;;;8.02;1.70;;;;;;;;;;5223989;28;20134;-72
2023/07/25 10:13:15;;;;;;;10.18;2.22;;;;;;;;;;5224039;28;20541;-72
2023/07/25 10:15:45;;;;;;;9.18;2.03;;;;;;;;;;5223578;28;20494;-72
2023/07/25 10:18:31;;;;;;;5.03;1.63;;;;;;;;;;5224161;28;20378;-72
2023/07/25 10:21:02;;;;;;;7.70;1.70;;;;;;;;;;5223913;28;20033;-72
2023/07/25 10:26:20;;;;;;;5.85;1.52;;;;;;;;;;5223460;28;20031;-71
2023/07/25 10:28:52;;;;;;;4.05;1.45;;;;;;;;;;5223884;28;20436;-72
2023/07/25 10:31:23;;;;;;;6.20;1.35;;;;;;;;;;5224043;28;20017;-71
2023/07/25 10:33:54;;;;;;;8.85;1.98;;;;;;;;;;5224136;28;20056;-72
2023/07/25 10:36:25;;;;;;;7.63;2.00;;;;;;;;;;5223396;28;20017;-72
2023/07/25 10:39:06;;;;;;;10.45;1.60;;;;;;;;;;5223792;28;20032;-72
2023/07/25 10:41:36;;;;;;;4.57;1.88;;;;;;;;;;5223617;28;20021;-72
2023/07/25 10:44:07;;;;;;;9.18;1.90;;;;;;;;;;5223606;28;20024;-71
2023/07/25 10:46:37;;;;;;;7.30;1.75;;;;;;;;;;5223407;28;20017;-71
2023/07/25 10:49:14;;;;;;;5.97;2.00;;;;;;;;;;5223539;28;20028;-71
2023/07/25 10:51:47;;;;;;;9.65;2.50;;;;;;;;;;5223710;28;20021;-71
2023/07/25 10:54:18;;;;;;;8.45;2.25;;;;;;;;;;5223899;28;20479;-71
2023/07/25 10:57:07;;;;;;;4.50;2.00;;;;;;;;;;5223263;28;20021;-71
2023/07/25 10:59:56;;;;;;;7.03;2.25;;;;;;;;;;5223354;28;20395;-71
2023/07/25 11:02:27;;;;;;;13.35;2.17;;;;;;;;;;5223266;28;20115;-71
2023/07/25 11:05:16;;;;;;;9.07;2.38;;;;;;;;;;5223356;28;20466;-71
2023/07/25 11:07:46;;;;;;;6.57;1.98;;;;;;;;;;5223107;28;20532;-71
2023/07/25 11:10:35;;;;;;;8.20;2.58;;;;;;;;;;5223456;28;20041;-71
2023/07/25 11:13:07;;;;;;;9.20;2.28;;;;;;;;;;5223457;28;20025;-71
2023/07/25 11:15:38;;;;;;;5.35;2.30;;;;;;;;;;5223844;28;20378;-72
2023/07/25 11:18:08;;;;;;;10.93;2.47;;;;;;;;;;5226863;28;20013;-71
2023/07/25 11:20:39;;;;;;;9.90;2.08;;;;;;;;;;5227570;28;20063;-71
2023/07/25 11:23:09;;;;;;;5.93;3.00;;;;;;;;;;5226641;28;20496;-71
2023/07/25 11:25:40;;;;;;;5.22;1.90;;;;;;;;;;5226500;28;20074;-71
2023/07/25 11:28:10;;;;;;;5.68;1.90;;;;;;;;;;5226946;28;20066;-71
2023/07/25 11:30:42;;;;;;;4.80;2.33;;;;;;;;;;5227009;28;20116;-71
2023/07/25 11:33:12;;;;;;;3.75;1.90;;;;;;;;;;5226911;28;20067;-72
2023/07/25 11:35:43;;;;;;;8.88;2.50;;;;;;;;;;5226042;28;20021;-71
2023/07/25 11:38:13;;;;;;;13.38;2.65;;;;;;;;;;5225839;28;20471;-71
2023/07/25 11:40:48;;;;;;;9.07;2.13;;;;;;;;;;5226923;28;20021;-72
2023/07/25 11:43:19;;;;;;;6.85;1.83;;;;;;;;;;5226675;28;20056;-72
2023/07/25 11:45:50;;;;;;;8.00;1.95;;;;;;;;;;5226141;28;20041;-71
2023/07/25 11:48:20;;;;;;;7.03;2.05;;;;;;;;;;5226129;28;20413;-72
2023/07/25 11:50:51;;;;;;;3.92;1.27;;;;;;;;;;5226799;28;20012;-72
2023/07/25 11:53:22;;;;;;;3.88;1.33;;;;;;;;;;5226628;28;20446;-72
2023/07/25 11:55:54;;;;;;;3.95;0.63;;;;;;;;;;5226128;28;20052;-72
2023/07/25 11:58:24;;;;;;;5.40;0.82;;;;;;;;;;5226240;28;20507;-72
2023/07/25 12:00:56;;;;;;;3.85;0.90;;;;;;;;;;5226050;28;20033;-72
2023/07/25 12:03:27;;;;;;;3.60;0.60;;;;;;;;;;5226242;28;20025;-72
2023/07/25 12:05:58;;;;;;;3.65;1.20;;;;;;;;;;5225803;28;20023;-71
2023/07/25 12:08:29;;;;;;;1.33;0.60;;;;;;;;;;5226148;28;20021;-72
2023/07/25 12:11:01;;;;;;;3.90;1.00;;;;;;;;;;5225921;28;20021;-72
2023/07/25 12:13:31;;;;;;;4.32;0.85;;;;;;;;;;5226112;28;20025;-72
2023/07/25 12:16:02;;;;;;;3.45;0.82;;;;;;;;;;5225829;28;20474;-72
2023/07/25 12:18:34;;;;;;;3.20;0.73;;;;;;;;;;5225905;28;20067;-72
2023/07/25 12:21:05;;;;;;;3.35;0.80;;;;;;;;;;5226133;28;20268;-72
2023/07/25 12:23:38;;;;;;;6.78;1.17;;;;;;;;;;5225669;28;20103;-72
2023/07/25 12:26:08;;;;;;;3.33;1.00;;;;;;;;;;5225328;28;20025;-72
2023/07/25 12:28:40;;;;;;;4.90;1.30;;;;;;;;;;5226006;28;20066;-72
2023/07/25 12:31:11;;;;;;;4.68;1.10;;;;;;;;;;5225692;28;20478;-72
2023/07/25 12:33:44;;;;;;;6.68;1.40;;;;;;;;;;5225732;28;20234;-72
2023/07/25 12:36:15;;;;;;;6.03;1.02;;;;;;;;;;5211752;28;20020;-72
2023/07/25 12:38:45;;;;;;;2.58;1.20;;;;;;;;;;5225686;28;20025;-72
2023/07/25 12:41:15;;;;;;;2.72;0.93;;;;;;;;;;5225749;28;20032;-72
2023/07/25 12:43:46;;;;;;;5.22;0.95;;;;;;;;;;5225453;28;20037;-72
2023/07/25 12:46:16;;;;;;;3.75;0.85;;;;;;;;;;5225007;28;20021;-72
2023/07/25 12:48:46;;;;;;;6.32;1.23;;;;;;;;;;5224824;28;20095;-72
2023/07/25 12:51:16;;;;;;;4.25;1.08;;;;;;;;;;5225422;28;20021;-72
2023/07/25 12:53:47;;;;;;;5.25;1.42;;;;;;;;;;5225250;28;20658;-72
2023/07/25 12:56:17;;;;;;;3.47;1.20;;;;;;;;;;5224798;28;20036;-72
2023/07/25 12:58:47;;;;;;;8.10;1.00;;;;;;;;;;5224991;28;20017;-72
2023/07/25 13:01:18;;;;;;;3.22;1.05;;;;;;;;;;5224901;28;20343;-72
2023/07/25 13:03:48;;;;;;;6.90;1.17;;;;;;;;;;5225213;28;20044;-72
2023/07/25 13:06:18;;;;;;;5.97;1.00;;;;;;;;;;5224846;28;20130;-72
2023/07/25 13:08:49;;;;;;;4.18;1.17;;;;;;;;;;5225169;28;20017;-72
2023/07/25 13:11:19;;;;;;;7.75;1.08;;;;;;;;;;5222586;28;20403;-72
2023/07/25 13:13:49;;;;;;;2.25;1.05;;;;;;;;;;5224732;28;20332;-72
2023/07/25 13:16:19;;;;;;;3.47;0.90;;;;;;;;;;5224295;28;20020;-72
2023/07/25 13:18:50;;;;;;;2.95;0.82;;;;;;;;;;5224959;28;20049;-72
2023/07/25 13:21:20;;;;;;;5.50;0.80;;;;;;;;;;5224848;28;20086;-72
2023/07/25 13:23:50;;;;;;;2.13;0.93;;;;;;;;;;5225051;28;20052;-72
2023/07/25 13:26:20;;;;;;;7.22;1.27;;;;;;;;;;5224158;28;20471;-72
2023/07/25 13:28:51;;;;;;;5.20;1.10;;;;;;;;;;5224590;28;20021;-72
2023/07/25 13:31:21;;;;;;;3.10;1.13;;;;;;;;;;5224692;28;20017;-72
2023/07/25 13:33:51;;;;;;;2.40;0.80;;;;;;;;;;5224660;28;20379;-72
2023/07/25 13:36:21;;;;;;;6.60;1.10;;;;;;;;;;5223895;28;20082;-72
2023/07/25 13:38:52;;;;;;;2.08;0.75;;;;;;;;;;5224195;28;20482;-72
2023/07/25 13:41:22;;;;;;;2.55;0.65;;;;;;;;;;5224745;28;20086;-72
2023/07/25 13:43:53;;;;;;;7.35;0.93;;;;;;;;;;5224477;28;20021;-72
2023/07/25 13:46:23;;;;;;;5.25;1.10;;;;;;;;;;5224573;28;20021;-72
2023/07/25 13:48:53;;;;;;;4.00;0.80;;;;;;;;;;5222897;28;20091;-72
2023/07/25 13:51:24;;;;;;;2.90;1.00;;;;;;;;;;5224152;28;20394;-72
2023/07/25 13:53:54;;;;;;;6.40;0.90;;;;;;;;;;5224557;28;20052;-72
2023/07/25 13:56:24;;;;;;;3.17;0.70;;;;;;;;;;5223913;28;20029;-72
2023/07/25 13:58:54;;;;;;;6.38;1.00;;;;;;;;;;5224159;28;20016;-72
2023/07/25 14:01:25;;;;;;;3.75;0.70;;;;;;;;;;5223861;28;20031;-72
2023/07/25 14:03:55;;;;;;;3.10;0.95;;;;;;;;;;5223917;28;20035;-72
2023/07/25 14:06:25;;;;;;;1.98;0.90;;;;;;;;;;5223654;28;20088;-72
2023/07/25 14:08:56;;;;;;;4.80;1.30;;;;;;;;;;5224218;28;20013;-72
2023/07/25 14:11:27;;;;;;;3.90;0.95;;;;;;;;;;5223957;28;20044;-72
2023/07/25 14:13:58;;;;;;;4.03;1.10;;;;;;;;;;5224020;28;20074;-72
2023/07/25 14:16:28;;;;;;;4.78;0.93;;;;;;;;;;5223406;28;20017;-72
2023/07/25 14:18:58;;;;;;;5.38;1.25;;;;;;;;;;5224061;28;20478;-72
2023/07/25 14:21:28;;;;;;;3.90;0.90;;;;;;;;;;5223968;28;20022;-72
2023/07/25 14:23:59;;;;;;;4.32;0.70;;;;;;;;;;5223966;28;20382;-72
2023/07/25 14:26:29;;;;;;;2.03;0.68;;;;;;;;;;5223268;28;20087;-72
2023/07/25 14:29:02;;;;;;;4.63;1.00;;;;;;;;;;5224173;28;20021;-72
2023/07/25 14:31:32;;;;;;;3.63;1.00;;;;;;;;;;5223912;28;20017;-72
2023/07/25 14:34:03;;;;;;;3.50;1.30;;;;;;;;;;5224291;28;20363;-72
2023/07/25 14:36:33;;;;;;;6.93;1.05;;;;;;;;;;5223492;28;20032;-72
2023/07/25 14:39:03;;;;;;;7.28;1.27;;;;;;;;;;5223460;28;20091;-72
2023/07/25 14:41:34;;;;;;;4.55;1.20;;;;;;;;;;5223961;28;20112;-72
2023/07/25 14:44:05;;;;;;;5.10;1.10;;;;;;;;;;5223677;28;20426;-72
2023/07/25 14:46:35;;;;;;;1.77;0.88;;;;;;;;;;5223519;28;20024;-72
2023/07/25 14:49:06;;;;;;;13.95;1.10;;;;;;;;;;5223575;28;20474;-72
2023/07/25 14:51:36;;;;;;;2.05;1.00;;;;;;;;;;5225488;28;20060;-72
2023/07/25 14:54:06;;;;;;;4.15;0.80;;;;;;;;;;5227707;28;20013;-72
2023/07/25 14:56:37;;;;;;;4.00;0.90;;;;;;;;;;5227331;28;20383;-72
2023/07/25 14:59:07;;;;;;;2.85;0.85;;;;;;;;;;5227710;28;20035;-72
2023/07/25 15:01:37;;;;;;;2.47;0.60;;;;;;;;;;5227508;28;20025;-72